createdAt,value
2022-10-17T00:01:31.455Z,99870.66
2022-10-17T00:04:43.234Z,99873.86
2022-10-17T00:07:55.082Z,99878.36
2022-10-17T00:11:10.918Z,99876.30
2022-10-17T00:14:22.810Z,99878.69
2022-10-17T00:17:34.730Z,99878.69
2022-10-17T00:20:46.433Z,99876.75
2022-10-17T00:23:58.860Z,99874.48
2022-10-17T00:27:10.766Z,99880.66
2022-10-17T00:30:23.628Z,99883.06
2022-10-17T00:33:36.589Z,99885.00
2022-10-17T00:36:48.205Z,99888.88
2022-10-17T00:40:00.971Z,99891.67
2022-10-17T00:43:18.512Z,99893.58
2022-10-17T00:46:32.561Z,99894.91
2022-10-17T00:49:46.751Z,99898.56
2022-10-17T00:53:00.405Z,99897.93
2022-10-17T00:56:13.378Z,99898.56
2022-10-17T00:59:27.444Z,99894.45
2022-10-17T01:02:39.311Z,99889.00
2022-10-17T01:05:52.235Z,99886.47
2022-10-17T01:09:04.962Z,99882.09
2022-10-17T01:12:23.096Z,99885.97
2022-10-17T01:15:47.144Z,99883.56
2022-10-17T01:19:07.388Z,99885.50
2022-10-17T01:22:26.201Z,99882.21
2022-10-17T01:25:45.148Z,99887.44
2022-10-17T01:29:23.568Z,99891.05
2022-10-17T01:32:41.574Z,99886.71
2022-10-17T01:36:03.179Z,99884.53
2022-10-17T01:39:21.605Z,99884.76
2022-10-17T01:42:38.307Z,99892.01
2022-10-17T01:45:58.824Z,99886.95
2022-10-17T01:49:14.519Z,99890.55
2022-10-17T01:52:29.828Z,99897.71
2022-10-17T01:55:47.573Z,99890.81
2022-10-17T01:59:04.004Z,99902.14
2022-10-17T02:02:18.799Z,99891.51
2022-10-17T02:05:35.266Z,99890.78
2022-10-17T02:08:52.603Z,99886.45
2022-10-17T02:12:42.028Z,99882.08
2022-10-17T02:16:13.310Z,99887.05
2022-10-17T02:19:42.586Z,99895.15
2022-10-17T02:23:00.118Z,99899.96
2022-10-17T02:26:18.294Z,99896.48
2022-10-17T02:29:34.678Z,99893.31
2022-10-17T02:32:52.249Z,99888.72
2022-10-17T02:36:10.427Z,99893.31
2022-10-17T02:39:26.112Z,99901.41
2022-10-17T02:42:38.793Z,99906.22
2022-10-17T02:45:52.172Z,99902.73
2022-10-17T02:49:12.982Z,99900.42
2022-10-17T02:52:31.865Z,99909.72
2022-10-17T02:55:50.859Z,99910.77
2022-10-17T02:59:06.068Z,99910.98
2022-10-17T03:02:17.726Z,99914.38
2022-10-17T03:05:33.431Z,99917.77
2022-10-17T03:08:46.231Z,99924.25
2022-10-17T03:11:58.053Z,99917.06
2022-10-17T03:15:12.919Z,99919.84
2022-10-17T03:18:25.613Z,99923.81
2022-10-17T03:21:40.505Z,99926.67
2022-10-17T03:27:52.949Z,99937.98
2022-10-17T03:31:05.350Z,99944.77
2022-10-17T03:34:18.983Z,99950.81
2022-10-17T03:37:31.797Z,99954.53
2022-10-17T03:40:44.258Z,99949.84
2022-10-17T03:43:58.281Z,99955.27
2022-10-17T03:47:14.090Z,99959.40
2022-10-17T03:50:28.238Z,99961.77
2022-10-17T03:53:40.918Z,99970.91
2022-10-17T03:56:54.072Z,99972.95
2022-10-17T04:03:06.516Z,99974.42
2022-10-17T04:06:22.850Z,99974.31
2022-10-17T04:09:34.700Z,99963.69
2022-10-17T04:12:49.762Z,99970.91
2022-10-17T04:16:04.717Z,99964.66
2022-10-17T04:19:19.768Z,99957.52
2022-10-17T04:22:32.739Z,99972.63
2022-10-17T04:25:47.237Z,99972.09
2022-10-17T04:28:59.337Z,99973.52
2022-10-17T04:32:11.400Z,99973.92
2022-10-17T04:35:28.817Z,99977.52
2022-10-17T04:38:42.658Z,99976.46
2022-10-17T04:41:56.472Z,99981.68
2022-10-17T04:45:09.611Z,99987.52
2022-10-17T04:48:21.876Z,99987.09
2022-10-17T04:51:33.866Z,99989.01
2022-10-17T04:54:56.519Z,99996.47
2022-10-17T04:58:08.545Z,99984.26
2022-10-17T05:01:23.647Z,99995.19
2022-10-17T05:04:37.325Z,99985.75
2022-10-17T05:07:49.747Z,99996.16
2022-10-17T05:11:03.383Z,99996.90
2022-10-17T05:14:15.643Z,100007.28
2022-10-17T05:17:28.108Z,100004.86
2022-10-17T05:20:40.548Z,100011.34
2022-10-17T05:23:52.611Z,100017.50
2022-10-17T05:27:04.415Z,100016.64
2022-10-17T05:30:18.098Z,100020.47
2022-10-17T05:33:29.991Z,100023.55
2022-10-17T05:36:41.809Z,100023.44
2022-10-17T05:39:53.993Z,100023.86
2022-10-17T05:43:05.848Z,100022.69
2022-10-17T05:46:18.532Z,100022.03
2022-10-17T05:49:45.973Z,100024.88
2022-10-17T05:52:46.506Z,100021.70
2022-10-17T06:00:27.863Z,100038.33
2022-10-17T06:03:42.076Z,100041.58
2022-10-17T06:06:56.209Z,100047.02
2022-10-17T06:10:08.676Z,100044.41
2022-10-17T06:13:21.050Z,100057.03
2022-10-17T06:16:35.047Z,100056.21
2022-10-17T06:19:47.048Z,100060.30
2022-10-17T06:23:00.295Z,100060.56
2022-10-17T06:26:14.960Z,100057.39
2022-10-17T06:29:27.290Z,100057.51
2022-10-17T06:32:40.019Z,100055.51
2022-10-17T06:35:56.659Z,100058.23
2022-10-17T06:39:10.133Z,100054.84
2022-10-17T06:42:23.954Z,100060.91
2022-10-17T06:45:37.897Z,100064.20
2022-10-17T06:49:04.764Z,100067.81
2022-10-17T06:52:37.043Z,100068.63
2022-10-17T06:56:08.337Z,100077.59
2022-10-17T06:59:22.372Z,100085.45
2022-10-17T07:02:36.145Z,100080.27
2022-10-17T07:05:48.131Z,100074.47
2022-10-17T07:09:02.049Z,100079.63
2022-10-17T07:12:14.117Z,100080.48
2022-10-17T07:15:27.868Z,100090.54
2022-10-17T07:18:41.026Z,100091.71
2022-10-17T07:21:53.363Z,100097.63
2022-10-17T07:25:07.306Z,100093.13
2022-10-17T07:28:21.942Z,100090.66
2022-10-17T07:31:41.256Z,100080.84
2022-10-17T07:35:00.600Z,100088.48
2022-10-17T07:38:12.698Z,100087.06
2022-10-17T07:41:25.802Z,100081.48
2022-10-17T07:44:39.524Z,100077.43
2022-10-17T07:47:51.404Z,100072.48
2022-10-17T07:51:04.410Z,100065.46
2022-10-17T07:54:16.701Z,100063.44
2022-10-17T07:57:28.381Z,100068.31
2022-10-17T08:00:41.195Z,100064.80
2022-10-17T08:03:53.709Z,100069.06
2022-10-17T08:07:18.607Z,100069.31
2022-10-17T08:10:21.519Z,100069.35
2022-10-17T08:13:33.248Z,100074.06
2022-10-17T08:16:45.293Z,100076.05
2022-10-17T08:19:57.029Z,100066.49
2022-10-17T08:23:08.769Z,100068.69
2022-10-17T08:26:20.895Z,100072.16
2022-10-17T08:29:32.982Z,100080.81
2022-10-17T08:32:45.315Z,100070.16
2022-10-17T08:35:57.045Z,100066.80
2022-10-17T08:39:09.140Z,100064.58
2022-10-17T08:42:53.441Z,100060.52
2022-10-17T08:46:09.080Z,100068.58
2022-10-17T08:49:27.587Z,100067.66
2022-10-17T08:52:46.715Z,100071.84
2022-10-17T08:55:59.646Z,100067.13
2022-10-17T08:59:17.485Z,100073.05
2022-10-17T09:02:48.872Z,100073.57
2022-10-17T09:06:07.472Z,100065.70
2022-10-17T09:09:32.295Z,100061.80
2022-10-17T09:12:51.272Z,100063.42
2022-10-17T09:16:26.929Z,100069.55
2022-10-17T09:19:43.439Z,100067.44
2022-10-17T09:26:09.045Z,100064.02
2022-10-17T09:29:30.852Z,100060.38
2022-10-17T09:32:43.721Z,100065.63
2022-10-17T09:35:56.727Z,100063.42
2022-10-17T09:39:12.756Z,100067.67
2022-10-17T09:42:29.437Z,100073.95
2022-10-17T09:45:47.274Z,100068.25
2022-10-17T09:49:04.819Z,100072.75
2022-10-17T09:52:22.228Z,100070.53
2022-10-17T09:55:43.990Z,100073.30
2022-10-17T09:58:59.702Z,100064.08
2022-10-17T10:02:27.529Z,100069.03
2022-10-17T10:05:39.839Z,100071.25
2022-10-17T10:09:03.435Z,100066.36
2022-10-17T10:12:24.961Z,100063.64
2022-10-17T10:15:42.927Z,100061.46
2022-10-17T10:18:56.281Z,100066.11
2022-10-17T10:22:10.515Z,100056.28
2022-10-17T10:25:24.029Z,100055.64
2022-10-17T10:28:39.131Z,100056.45
2022-10-17T10:36:09.191Z,100054.82
2022-10-17T10:43:43.134Z,100043.63
2022-10-17T10:50:36.000Z,100039.85
2022-10-17T10:54:09.724Z,100034.84
2022-10-17T10:57:41.036Z,100036.16
2022-10-17T11:00:53.944Z,100035.72
2022-10-17T11:04:20.812Z,100030.08
2022-10-17T11:07:34.237Z,100033.66
2022-10-17T11:10:52.518Z,100028.59
2022-10-17T11:14:12.978Z,100022.95
2022-10-17T11:17:34.594Z,100018.34
2022-10-17T11:20:53.008Z,100010.80
2022-10-17T11:24:10.899Z,100001.36
2022-10-17T11:27:22.856Z,100007.61
2022-10-17T11:34:00.476Z,100007.59
2022-10-17T11:37:18.986Z,100007.99
2022-10-17T11:40:35.349Z,100004.55
2022-10-17T11:43:52.807Z,100003.50
2022-10-17T11:47:08.627Z,99996.67
2022-10-17T11:53:54.019Z,100000.05
2022-10-17T11:57:18.844Z,99994.33
2022-10-17T12:00:47.545Z,99982.64
2022-10-17T12:04:16.518Z,99993.82
2022-10-17T12:07:34.704Z,99982.52
2022-10-17T12:10:56.045Z,99984.75
2022-10-17T12:14:14.765Z,99984.61
2022-10-17T12:17:39.336Z,99980.27
2022-10-17T12:21:01.272Z,99975.76
2022-10-17T12:24:23.693Z,99970.33
2022-10-17T12:27:47.401Z,99973.73
2022-10-17T12:31:06.395Z,99971.02
2022-10-17T12:34:25.228Z,99963.66
2022-10-17T12:38:25.038Z,99962.45
2022-10-17T12:42:00.105Z,99966.23
2022-10-17T12:45:56.498Z,99956.63
2022-10-17T12:49:19.341Z,99963.30
2022-10-17T12:52:41.935Z,99965.38
2022-10-17T12:56:04.991Z,99955.73
2022-10-17T12:59:22.260Z,99959.08
2022-10-17T13:02:36.974Z,99959.08
2022-10-17T13:05:53.138Z,99963.26
2022-10-17T13:09:09.935Z,99961.58
2022-10-17T13:12:29.653Z,99959.08
2022-10-17T13:15:51.736Z,99954.08
2022-10-17T13:19:08.670Z,99962.66
2022-10-17T13:22:33.583Z,99956.59
2022-10-17T13:25:57.344Z,99958.68
2022-10-17T13:29:25.797Z,99955.75
2022-10-17T13:32:45.572Z,99955.33
2022-10-17T13:36:00.772Z,99951.55
2022-10-17T13:39:23.217Z,99955.30
2022-10-17T13:42:38.961Z,99955.72
2022-10-17T13:45:55.514Z,99952.80
2022-10-17T13:49:15.241Z,99949.37
2022-10-17T13:52:30.414Z,99952.77
2022-10-17T13:55:42.587Z,99947.50
2022-10-17T13:59:11.909Z,99948.10
2022-10-17T14:02:26.917Z,99948.05
2022-10-17T14:05:48.366Z,99948.86
2022-10-17T14:09:07.455Z,99938.38
2022-10-17T14:12:20.559Z,99955.48
2022-10-17T14:15:36.058Z,99944.79
2022-10-17T14:18:50.086Z,99942.25
2022-10-17T14:22:17.937Z,99942.17
2022-10-17T14:25:39.329Z,99942.70
2022-10-17T14:28:55.081Z,99950.36
2022-10-17T14:32:16.804Z,99942.63
2022-10-17T14:39:14.487Z,99948.73
2022-10-17T14:42:29.022Z,99943.11
2022-10-17T14:45:44.359Z,99948.65
2022-10-17T14:49:06.644Z,99946.59
2022-10-17T14:52:38.372Z,99944.83
2022-10-17T14:56:02.737Z,99936.39
2022-10-17T14:59:52.299Z,99937.94
2022-10-17T15:02:39.739Z,99944.25
2022-10-17T15:06:02.655Z,99937.38
2022-10-17T15:09:15.859Z,99944.97
2022-10-17T15:12:31.678Z,99938.36
2022-10-17T15:19:36.336Z,99934.86
2022-10-17T15:22:55.375Z,99937.22
2022-10-17T15:26:20.307Z,99936.17
2022-10-17T15:29:32.096Z,99942.58
2022-10-17T15:32:44.904Z,99948.84
2022-10-17T15:36:09.688Z,99944.77
2022-10-17T15:39:21.802Z,99948.52
2022-10-17T15:42:36.666Z,99955.64
2022-10-17T15:45:48.511Z,99945.77
2022-10-17T15:49:01.608Z,99958.33
2022-10-17T15:52:14.629Z,99960.40
2022-10-17T15:55:27.291Z,99965.71
2022-10-17T15:58:44.373Z,99962.23
2022-10-17T16:01:56.472Z,99967.47
2022-10-17T16:05:13.325Z,99963.83
2022-10-17T16:08:25.264Z,99965.55
2022-10-17T16:11:41.485Z,99971.72
2022-10-17T16:14:53.268Z,99972.89
2022-10-17T16:18:07.314Z,99978.47
2022-10-17T16:21:21.514Z,99968.02
2022-10-17T16:24:33.492Z,99977.99
2022-10-17T16:27:45.746Z,99974.96
2022-10-17T16:31:10.532Z,99965.72
2022-10-17T16:34:23.429Z,99976.37
2022-10-17T16:41:26.925Z,99970.30
2022-10-17T16:44:46.100Z,99971.67
2022-10-17T16:47:57.820Z,99972.22
2022-10-17T16:51:12.489Z,99965.64
2022-10-17T16:54:42.231Z,99967.03
2022-10-17T16:57:54.064Z,99970.23
2022-10-17T17:01:08.232Z,99965.86
2022-10-17T17:04:32.969Z,99964.40
2022-10-17T17:07:44.781Z,99965.09
2022-10-17T17:10:57.565Z,99963.09
2022-10-17T17:14:18.483Z,99964.27
2022-10-17T17:17:48.682Z,99961.25
2022-10-17T17:20:46.541Z,99961.94
2022-10-17T17:24:06.132Z,99965.09
2022-10-17T17:27:29.948Z,99967.47
2022-10-17T17:30:42.206Z,99960.06
2022-10-17T17:37:07.010Z,99967.13
2022-10-17T17:40:21.132Z,99964.92
2022-10-17T17:47:05.948Z,99959.39
2022-10-17T17:50:25.664Z,99960.06
2022-10-17T17:57:17.934Z,99957.68
2022-10-17T18:00:29.960Z,99962.25
2022-10-17T18:03:44.220Z,99953.98
2022-10-17T18:10:45.378Z,99957.34
2022-10-17T18:14:03.996Z,99957.52
2022-10-17T18:17:15.835Z,99960.88
2022-10-17T18:20:36.101Z,99967.42
2022-10-17T18:24:02.956Z,99965.03
2022-10-17T18:27:16.161Z,99969.61
2022-10-17T18:30:29.941Z,99974.23
2022-10-17T18:33:44.738Z,99973.84
2022-10-17T18:36:56.835Z,99971.06
2022-10-17T18:40:09.211Z,99974.97
2022-10-17T18:43:21.618Z,99976.25
2022-10-17T18:46:40.430Z,99972.98
2022-10-17T18:53:43.687Z,99985.45
2022-10-17T18:57:13.257Z,99990.38
2022-10-17T19:00:37.201Z,99980.53
2022-10-17T19:03:51.448Z,99988.21
2022-10-17T19:07:05.360Z,99979.63
2022-10-17T19:10:17.774Z,99984.78
2022-10-17T19:13:30.767Z,99981.43
2022-10-17T19:24:32.579Z,99977.09
2022-10-17T19:46:49.348Z,99992.15
2022-10-17T20:01:05.747Z,99997.39
2022-10-17T20:16:24.391Z,99995.73
2022-10-17T20:19:48.641Z,99999.26
2022-10-17T20:23:00.888Z,100000.37
2022-10-17T20:37:30.093Z,100008.46
2022-10-17T20:45:12.256Z,99996.98
2022-10-17T20:48:24.539Z,99991.19
2022-10-17T20:51:36.937Z,99988.37
2022-10-17T20:54:49.019Z,99989.62
2022-10-17T20:58:01.731Z,99999.42
2022-10-17T21:01:15.043Z,99996.67
2022-10-17T21:04:45.225Z,99992.01
2022-10-17T21:11:59.112Z,99991.66
2022-10-17T21:15:13.219Z,99992.76
2022-10-17T21:18:25.086Z,99988.81
2022-10-17T21:21:39.527Z,99992.14
2022-10-17T21:24:51.338Z,99994.73
2022-10-17T21:28:03.346Z,99977.48
2022-10-17T21:31:22.192Z,99984.57
2022-10-17T21:34:34.425Z,99981.19
2022-10-17T21:37:46.234Z,99973.84
2022-10-17T21:40:58.097Z,99970.50
2022-10-17T21:44:14.369Z,99962.64
2022-10-17T21:47:27.659Z,99958.08
2022-10-17T21:50:39.632Z,99963.95
2022-10-17T21:53:52.164Z,99966.98
2022-10-17T21:57:04.251Z,99965.47
2022-10-17T22:00:19.760Z,99964.27
2022-10-17T22:03:31.686Z,99967.41
2022-10-17T22:06:47.445Z,99968.23
2022-10-17T22:09:59.770Z,99966.08
2022-10-17T22:13:11.675Z,99968.09
2022-10-17T22:16:24.144Z,99969.97
2022-10-17T22:19:37.184Z,99962.98
2022-10-17T22:22:49.118Z,99957.15
2022-10-17T22:26:05.118Z,99954.48
2022-10-17T22:29:17.234Z,99947.00
2022-10-17T22:32:29.138Z,99951.23
2022-10-17T22:35:41.076Z,99957.36
2022-10-17T22:38:52.952Z,99948.78
2022-10-17T22:42:04.629Z,99950.22
2022-10-17T22:45:17.530Z,99945.34
2022-10-17T22:48:29.871Z,99945.24
2022-10-17T22:51:41.657Z,99942.95
2022-10-17T22:54:54.918Z,99931.57
2022-10-17T22:58:06.667Z,99942.73
2022-10-17T23:01:22.280Z,99947.07
2022-10-17T23:04:34.302Z,99943.95
2022-10-17T23:07:46.166Z,99934.38
2022-10-17T23:10:58.469Z,99934.52
2022-10-17T23:14:10.357Z,99939.13
2022-10-17T23:17:22.251Z,99939.36
2022-10-17T23:20:35.237Z,99938.17
2022-10-17T23:23:47.370Z,99932.72
2022-10-17T23:26:59.361Z,99931.41
2022-10-17T23:30:14.538Z,99928.31
2022-10-17T23:33:26.321Z,99937.52
2022-10-17T23:36:38.533Z,99927.36
2022-10-17T23:39:50.703Z,99926.28
2022-10-17T23:43:02.873Z,99917.53
2022-10-17T23:46:15.718Z,99924.93
2022-10-17T23:49:28.109Z,99918.52
2022-10-17T23:52:40.396Z,99913.20
2022-10-17T23:55:52.587Z,99912.70
2022-10-17T23:59:07.594Z,99915.63
